createdAt,value
2023-02-14T00:01:08.369Z,-2.30
2023-02-14T00:03:35.030Z,-2.37
2023-02-14T00:06:09.178Z,-2.32
2023-02-14T00:08:36.751Z,-2.37
2023-02-14T00:11:05.404Z,-2.40
2023-02-14T00:13:32.078Z,-2.31
2023-02-14T00:15:59.141Z,-2.32
2023-02-14T00:18:45.891Z,-2.48
2023-02-14T00:21:12.644Z,-2.56
2023-02-14T00:23:39.330Z,-2.52
2023-02-14T00:26:06.039Z,-2.45
2023-02-14T00:28:32.740Z,-2.42
2023-02-14T00:31:01.965Z,-2.45
2023-02-14T00:33:28.847Z,-2.43
2023-02-14T00:35:55.412Z,-2.49
2023-02-14T00:38:22.046Z,-2.22
2023-02-14T00:40:48.676Z,-2.35
2023-02-14T00:43:15.264Z,-2.43
2023-02-14T00:45:41.946Z,-2.51
2023-02-14T00:48:08.583Z,-2.56
2023-02-14T00:50:35.376Z,-2.52
2023-02-14T00:53:02.009Z,-2.47
2023-02-14T00:55:28.639Z,-2.50
2023-02-14T00:57:55.297Z,-2.60
2023-02-14T01:00:22.252Z,-2.62
2023-02-14T01:02:49.087Z,-2.57
2023-02-14T01:05:15.808Z,-2.52
2023-02-14T01:07:42.463Z,-2.52
2023-02-14T01:10:09.403Z,-2.54
2023-02-14T01:12:36.066Z,-2.59
2023-02-14T01:15:02.626Z,-2.56
2023-02-14T01:17:29.262Z,-2.59
2023-02-14T01:19:55.957Z,-2.70
2023-02-14T01:22:22.590Z,-2.66
2023-02-14T01:24:49.297Z,-2.63
2023-02-14T01:27:15.940Z,-2.61
2023-02-14T01:29:42.615Z,-2.89
2023-02-14T01:32:09.322Z,-2.88
2023-02-14T01:34:36.043Z,-2.94
2023-02-14T01:37:02.805Z,-2.88
2023-02-14T01:39:29.407Z,-2.89
2023-02-14T01:41:56.741Z,-2.90
2023-02-14T01:44:26.159Z,-2.75
2023-02-14T01:46:52.945Z,-2.85
2023-02-14T01:49:28.627Z,-2.79
2023-02-14T01:52:09.893Z,-2.93
2023-02-14T01:54:39.309Z,-3.16
2023-02-14T01:57:09.242Z,-2.91
2023-02-14T01:59:40.619Z,-2.87
2023-02-14T02:02:07.799Z,-2.90
2023-02-14T02:04:41.444Z,-2.90
2023-02-14T02:07:11.005Z,-2.88
2023-02-14T02:09:57.506Z,-2.88
2023-02-14T02:12:24.452Z,-2.93
2023-02-14T02:14:53.459Z,-3.06
2023-02-14T02:17:25.474Z,-3.11
2023-02-14T02:20:13.959Z,-3.21
2023-02-14T02:22:59.582Z,-3.05
2023-02-14T02:25:35.124Z,-3.13
2023-02-14T02:28:26.603Z,-3.21
2023-02-14T02:31:22.324Z,-3.42
2023-02-14T02:34:18.212Z,-3.46
2023-02-14T02:37:03.505Z,-3.57
2023-02-14T02:40:11.479Z,-3.66
2023-02-14T02:43:04.722Z,-3.47
2023-02-14T02:46:00.843Z,-3.37
2023-02-14T02:48:38.106Z,-3.50
2023-02-14T02:51:26.321Z,-3.47
2023-02-14T02:54:03.246Z,-3.65
2023-02-14T02:56:46.465Z,-3.55
2023-02-14T02:59:20.628Z,-3.53
2023-02-14T03:01:52.910Z,-3.58
2023-02-14T03:04:39.772Z,-3.55
2023-02-14T03:07:27.887Z,-3.56
2023-02-14T03:09:57.710Z,-3.60
2023-02-14T03:12:33.277Z,-3.52
2023-02-14T03:15:18.140Z,-3.50
2023-02-14T03:18:17.376Z,-3.47
2023-02-14T03:20:52.019Z,-3.37
2023-02-14T03:23:25.450Z,-3.34
2023-02-14T03:26:02.729Z,-3.27
2023-02-14T03:28:48.538Z,-3.39
2023-02-14T03:31:26.872Z,-3.39
2023-02-14T03:34:12.518Z,-3.28
2023-02-14T03:36:57.204Z,-3.16
2023-02-14T03:39:42.442Z,-3.26
2023-02-14T03:42:16.554Z,-3.20
2023-02-14T03:44:44.504Z,-3.16
2023-02-14T03:47:14.024Z,-3.17
2023-02-14T03:50:12.401Z,-3.21
2023-02-14T03:52:39.440Z,-3.16
2023-02-14T03:55:07.732Z,-3.10
2023-02-14T03:57:48.078Z,-3.07
2023-02-14T04:00:16.132Z,-3.25
2023-02-14T04:02:48.457Z,-3.42
2023-02-14T04:05:22.272Z,-3.39
2023-02-14T04:07:52.091Z,-3.53
2023-02-14T04:10:19.615Z,-3.45
2023-02-14T04:12:46.951Z,-3.39
2023-02-14T04:15:14.334Z,-3.37
2023-02-14T04:17:59.941Z,-3.35
2023-02-14T04:20:27.285Z,-3.43
2023-02-14T04:22:54.545Z,-3.43
2023-02-14T04:25:22.145Z,-3.43
2023-02-14T04:27:49.101Z,-3.56
2023-02-14T04:30:18.103Z,-3.54
2023-02-14T04:32:45.503Z,-3.73
2023-02-14T04:35:12.211Z,-3.75
2023-02-14T04:37:39.491Z,-3.64
2023-02-14T04:40:07.107Z,-3.67
2023-02-14T04:42:34.070Z,-3.78
2023-02-14T04:45:03.138Z,-3.73
2023-02-14T04:47:30.826Z,-3.86
2023-02-14T04:49:57.666Z,-3.88
2023-02-14T04:52:24.524Z,-3.89
2023-02-14T04:54:51.243Z,-3.87
2023-02-14T04:57:17.959Z,-3.81
2023-02-14T04:59:45.157Z,-3.78
2023-02-14T05:02:11.923Z,-3.85
2023-02-14T05:04:38.587Z,-4.07
2023-02-14T05:07:05.346Z,-4.15
2023-02-14T05:09:32.427Z,-4.30
2023-02-14T05:11:59.022Z,-4.11
2023-02-14T05:14:25.602Z,-4.11
2023-02-14T05:16:52.318Z,-4.07
2023-02-14T05:19:18.934Z,-4.20
2023-02-14T05:21:45.573Z,-4.20
2023-02-14T05:24:12.179Z,-4.16
2023-02-14T05:26:38.988Z,-4.18
2023-02-14T05:29:05.554Z,-4.15
2023-02-14T05:31:32.295Z,-4.10
2023-02-14T05:33:59.027Z,-4.16
2023-02-14T05:36:25.808Z,-4.18
2023-02-14T05:38:52.652Z,-4.24
2023-02-14T05:41:19.328Z,-4.19
2023-02-14T05:43:45.954Z,-4.38
2023-02-14T05:46:12.687Z,-4.28
2023-02-14T05:48:39.505Z,-4.10
2023-02-14T05:51:08.189Z,-4.26
2023-02-14T05:53:34.908Z,-4.45
2023-02-14T05:56:01.807Z,-4.57
2023-02-14T05:58:28.500Z,-4.51
2023-02-14T06:00:57.771Z,-4.62
2023-02-14T06:03:25.042Z,-4.68
2023-02-14T06:05:52.362Z,-4.67
2023-02-14T06:08:19.124Z,-4.48
2023-02-14T06:10:46.458Z,-4.73
2023-02-14T06:13:13.261Z,-4.53
2023-02-14T06:15:39.911Z,-4.57
2023-02-14T06:18:06.993Z,-4.58
2023-02-14T06:20:33.873Z,-4.44
2023-02-14T06:23:00.601Z,-4.59
2023-02-14T06:25:27.676Z,-4.63
2023-02-14T06:27:58.623Z,-4.61
2023-02-14T06:30:26.182Z,-4.67
2023-02-14T06:32:53.044Z,-4.69
2023-02-14T06:35:19.909Z,-4.64
2023-02-14T06:37:46.816Z,-4.59
2023-02-14T06:40:13.817Z,-4.71
2023-02-14T06:42:40.775Z,-4.64
2023-02-14T06:45:08.007Z,-4.55
2023-02-14T06:47:35.300Z,-4.58
2023-02-14T06:50:04.356Z,-4.54
2023-02-14T06:52:34.443Z,-4.41
2023-02-14T06:55:01.219Z,-4.42
2023-02-14T06:57:28.212Z,-4.45
2023-02-14T06:59:54.904Z,-4.37
2023-02-14T07:02:24.764Z,-4.27
2023-02-14T07:04:51.801Z,-4.21
2023-02-14T07:07:18.569Z,-4.07
2023-02-14T07:09:45.322Z,-3.78
2023-02-14T07:12:12.107Z,-3.80
2023-02-14T07:14:38.901Z,-3.75
2023-02-14T07:17:05.736Z,-3.74
2023-02-14T07:19:32.422Z,-3.67
2023-02-14T07:21:59.181Z,-3.66
2023-02-14T07:24:25.873Z,-3.68
2023-02-14T07:26:52.642Z,-3.84
2023-02-14T07:29:19.430Z,-3.49
2023-02-14T07:31:46.298Z,-3.50
2023-02-14T07:34:13.205Z,-3.42
2023-02-14T07:36:39.988Z,-3.28
2023-02-14T07:39:06.773Z,-3.68
2023-02-14T07:41:33.580Z,-3.71
2023-02-14T07:44:00.385Z,-3.64
2023-02-14T07:46:27.237Z,-3.40
2023-02-14T07:48:54.071Z,-3.10
2023-02-14T07:51:20.821Z,-2.92
2023-02-14T07:53:47.583Z,-2.75
2023-02-14T07:56:14.400Z,-2.70
2023-02-14T07:58:41.199Z,-2.84
2023-02-14T08:01:08.015Z,-2.93
2023-02-14T08:03:34.879Z,-3.11
2023-02-14T08:06:01.651Z,-3.20
2023-02-14T08:08:30.992Z,-3.21
2023-02-14T08:10:58.428Z,-3.08
2023-02-14T08:13:25.492Z,-2.85
2023-02-14T08:16:12.792Z,-2.59
2023-02-14T08:18:41.605Z,-2.68
2023-02-14T08:21:10.773Z,-2.62
2023-02-14T08:23:38.566Z,-2.78
2023-02-14T08:26:05.742Z,-2.69
2023-02-14T08:28:33.390Z,-2.60
2023-02-14T08:31:00.669Z,-2.47
2023-02-14T08:33:27.738Z,-2.43
2023-02-14T08:35:54.474Z,-2.55
2023-02-14T08:38:21.325Z,-2.32
2023-02-14T08:40:48.109Z,-2.08
2023-02-14T08:43:15.067Z,-2.27
2023-02-14T08:45:42.159Z,-2.01
2023-02-14T08:48:10.637Z,-1.80
2023-02-14T08:50:40.462Z,-1.88
2023-02-14T08:53:09.692Z,-1.97
2023-02-14T08:55:36.505Z,-1.69
2023-02-14T08:58:04.205Z,-1.51
2023-02-14T09:00:31.825Z,-1.31
2023-02-14T09:02:58.796Z,-1.19
2023-02-14T09:05:26.594Z,-0.97
2023-02-14T09:07:56.011Z,-0.88
2023-02-14T09:10:23.159Z,-1.03
2023-02-14T09:12:50.736Z,-0.84
2023-02-14T09:15:17.523Z,-0.50
2023-02-14T09:17:44.339Z,-0.54
2023-02-14T09:20:13.588Z,-0.77
2023-02-14T09:22:40.547Z,-0.33
2023-02-14T09:25:07.487Z,-0.39
2023-02-14T09:27:34.312Z,-0.20
2023-02-14T09:30:01.101Z,0.50
2023-02-14T09:32:29.432Z,1.42
2023-02-14T09:34:56.315Z,1.85
2023-02-14T09:37:41.685Z,2.32
2023-02-14T09:40:09.207Z,3.24
2023-02-14T09:42:38.935Z,2.74
2023-02-14T09:45:17.837Z,2.89
2023-02-14T09:48:15.209Z,2.38
2023-02-14T09:51:04.152Z,2.57
2023-02-14T09:53:37.104Z,2.72
2023-02-14T09:56:27.519Z,2.75
2023-02-14T09:59:06.918Z,3.44
2023-02-14T10:01:38.634Z,4.04
2023-02-14T10:04:27.583Z,4.44
2023-02-14T10:06:58.652Z,4.13
2023-02-14T10:09:25.390Z,4.16
2023-02-14T10:11:53.057Z,4.90
2023-02-14T10:14:23.927Z,4.84
2023-02-14T10:17:02.094Z,5.26
2023-02-14T10:19:33.075Z,4.76
2023-02-14T10:22:05.592Z,5.86
2023-02-14T10:25:02.630Z,5.25
2023-02-14T10:27:39.759Z,5.06
2023-02-14T10:30:21.403Z,5.02
2023-02-14T10:33:11.596Z,5.78
2023-02-14T10:35:52.027Z,5.99
2023-02-14T10:38:40.964Z,5.54
2023-02-14T10:41:34.160Z,5.72
2023-02-14T10:44:05.011Z,6.26
2023-02-14T10:46:34.858Z,6.40
2023-02-14T10:49:44.224Z,7.38
2023-02-14T10:52:35.208Z,7.77
2023-02-14T10:55:20.272Z,7.55
2023-02-14T10:57:57.188Z,6.23
2023-02-14T11:00:27.267Z,6.74
2023-02-14T11:02:57.664Z,6.52
2023-02-14T11:05:34.755Z,7.00
2023-02-14T11:08:02.084Z,6.71
2023-02-14T11:10:32.451Z,6.71
2023-02-14T11:12:59.149Z,7.37
2023-02-14T11:15:32.998Z,8.19
2023-02-14T11:18:18.737Z,7.73
2023-02-14T11:20:59.904Z,8.45
2023-02-14T11:23:26.699Z,8.72
2023-02-14T11:25:55.764Z,8.73
2023-02-14T11:28:23.026Z,9.03
2023-02-14T11:30:50.998Z,8.28
2023-02-14T11:33:34.220Z,8.10
2023-02-14T11:36:03.210Z,8.41
2023-02-14T11:38:34.165Z,9.38
2023-02-14T11:41:01.207Z,9.45
2023-02-14T11:43:39.414Z,9.39
2023-02-14T11:46:08.316Z,8.93
2023-02-14T11:48:38.856Z,8.63
2023-02-14T11:51:10.505Z,8.74
2023-02-14T11:54:01.399Z,8.79
2023-02-14T11:56:45.187Z,8.52
2023-02-14T11:59:12.807Z,8.92
2023-02-14T12:01:39.591Z,8.72
2023-02-14T12:04:16.401Z,9.90
2023-02-14T12:06:44.577Z,10.09
2023-02-14T12:09:31.735Z,10.41
2023-02-14T12:11:59.603Z,9.90
2023-02-14T12:14:34.070Z,9.16
2023-02-14T12:17:21.391Z,9.23
2023-02-14T12:20:17.260Z,9.29
2023-02-14T12:22:50.570Z,9.42
2023-02-14T12:25:22.899Z,10.04
2023-02-14T12:27:49.612Z,10.17
2023-02-14T12:30:19.459Z,10.18
2023-02-14T12:32:51.532Z,10.09
2023-02-14T12:35:27.854Z,10.27
2023-02-14T12:38:07.090Z,10.16
2023-02-14T12:40:49.674Z,10.29
2023-02-14T12:43:34.508Z,10.04
2023-02-14T12:46:14.914Z,10.67
2023-02-14T12:48:56.767Z,10.87
2023-02-14T12:51:57.399Z,10.54
2023-02-14T12:54:30.220Z,10.83
2023-02-14T12:57:18.879Z,11.50
2023-02-14T13:00:05.399Z,11.48
2023-02-14T13:02:35.136Z,10.46
2023-02-14T13:05:24.248Z,10.20
2023-02-14T13:08:20.695Z,10.37
2023-02-14T13:10:56.339Z,10.06
2023-02-14T13:13:27.608Z,9.63
2023-02-14T13:16:17.528Z,9.63
2023-02-14T13:19:04.137Z,10.01
2023-02-14T13:21:34.181Z,10.01
2023-02-14T13:24:16.630Z,10.03
2023-02-14T13:26:45.354Z,10.14
2023-02-14T13:29:24.124Z,10.02
2023-02-14T13:31:52.400Z,10.22
2023-02-14T13:34:26.848Z,10.21
2023-02-14T13:36:55.479Z,10.14
2023-02-14T13:39:44.175Z,9.95
2023-02-14T13:42:11.670Z,9.97
2023-02-14T13:44:47.882Z,10.08
2023-02-14T13:47:22.840Z,10.18
2023-02-14T13:50:01.128Z,10.43
2023-02-14T13:52:45.014Z,10.36
2023-02-14T13:55:27.295Z,10.35
2023-02-14T13:58:24.312Z,9.99
2023-02-14T14:00:52.882Z,10.13
2023-02-14T14:03:28.941Z,10.37
2023-02-14T14:05:58.878Z,10.47
2023-02-14T14:08:28.759Z,10.37
2023-02-14T14:10:59.684Z,10.05
2023-02-14T14:13:41.734Z,9.40
2023-02-14T14:16:21.626Z,9.22
2023-02-14T14:18:49.472Z,9.46
2023-02-14T14:21:39.230Z,9.38
2023-02-14T14:24:17.880Z,9.33
2023-02-14T14:27:00.738Z,9.62
2023-02-14T14:29:34.823Z,9.62
2023-02-14T14:32:15.298Z,9.12
2023-02-14T14:34:50.503Z,8.92
2023-02-14T14:37:20.203Z,9.01
2023-02-14T14:39:52.070Z,8.91
2023-02-14T14:42:19.735Z,8.77
2023-02-14T14:45:05.716Z,8.94
2023-02-14T14:47:41.062Z,8.66
2023-02-14T14:50:13.749Z,8.22
2023-02-14T14:52:43.959Z,8.30
2023-02-14T14:55:28.030Z,8.23
2023-02-14T14:58:00.584Z,7.71
2023-02-14T15:00:29.760Z,7.34
2023-02-14T15:02:58.909Z,7.22
2023-02-14T15:05:30.355Z,6.91
2023-02-14T15:07:57.971Z,6.84
2023-02-14T15:10:27.967Z,6.69
2023-02-14T15:13:16.564Z,6.35
2023-02-14T15:15:48.814Z,6.02
2023-02-14T15:18:15.677Z,5.85
2023-02-14T15:20:42.761Z,5.66
2023-02-14T15:23:21.018Z,5.67
2023-02-14T15:25:49.335Z,5.36
2023-02-14T15:28:30.777Z,5.05
2023-02-14T15:31:04.567Z,4.70
2023-02-14T15:33:32.654Z,4.99
2023-02-14T15:36:03.786Z,4.88
2023-02-14T15:38:31.065Z,4.65
2023-02-14T15:40:58.953Z,4.40
2023-02-14T15:43:32.136Z,4.59
2023-02-14T15:46:27.379Z,4.33
2023-02-14T15:48:56.197Z,4.17
2023-02-14T15:51:27.122Z,4.11
2023-02-14T15:53:58.929Z,3.97
2023-02-14T15:56:28.174Z,3.83
2023-02-14T15:59:07.787Z,3.74
2023-02-14T16:01:36.085Z,3.61
2023-02-14T16:04:04.688Z,3.74
2023-02-14T16:06:35.942Z,3.64
2023-02-14T16:09:04.277Z,3.54
2023-02-14T16:11:36.267Z,3.73
2023-02-14T16:14:30.462Z,3.38
2023-02-14T16:17:03.126Z,3.44
2023-02-14T16:19:38.773Z,3.21
2023-02-14T16:22:07.207Z,3.17
2023-02-14T16:24:34.426Z,3.18
2023-02-14T16:27:06.871Z,3.05
2023-02-14T16:29:35.699Z,2.93
2023-02-14T16:32:17.053Z,2.91
2023-02-14T16:34:45.625Z,2.87
2023-02-14T16:37:23.418Z,2.77
2023-02-14T16:39:51.712Z,2.76
2023-02-14T16:42:18.961Z,2.57
2023-02-14T16:44:46.624Z,2.48
2023-02-14T16:47:14.927Z,2.49
2023-02-14T16:49:42.150Z,2.42
2023-02-14T16:52:18.004Z,2.36
2023-02-14T16:54:44.902Z,2.08
2023-02-14T16:57:28.234Z,2.19
2023-02-14T16:59:56.592Z,2.22
2023-02-14T17:02:26.391Z,2.26
2023-02-14T17:04:53.181Z,2.19
2023-02-14T17:07:20.315Z,2.18
2023-02-14T17:09:52.124Z,2.14
2023-02-14T17:12:22.756Z,2.24
2023-02-14T17:14:52.118Z,2.20
2023-02-14T17:17:19.085Z,2.16
2023-02-14T17:19:45.915Z,2.11
2023-02-14T17:22:13.746Z,2.12
2023-02-14T17:24:41.270Z,1.98
2023-02-14T17:27:08.798Z,1.89
2023-02-14T17:29:35.903Z,1.66
2023-02-14T17:32:03.197Z,1.56
2023-02-14T17:34:33.852Z,1.73
2023-02-14T17:37:00.616Z,1.57
2023-02-14T17:39:27.690Z,1.50
2023-02-14T17:41:56.693Z,1.50
2023-02-14T17:44:23.477Z,1.49
2023-02-14T17:46:50.409Z,1.44
2023-02-14T17:49:17.181Z,1.45
2023-02-14T17:51:43.858Z,1.11
2023-02-14T17:54:10.603Z,1.15
2023-02-14T17:56:37.336Z,1.00
2023-02-14T17:59:04.037Z,0.91
2023-02-14T18:01:34.654Z,1.00
2023-02-14T18:04:01.417Z,1.22
2023-02-14T18:06:28.280Z,1.14
2023-02-14T18:08:58.047Z,0.99
2023-02-14T18:11:27.520Z,0.99
2023-02-14T18:13:55.409Z,0.89
2023-02-14T18:16:22.492Z,0.76
2023-02-14T18:18:49.329Z,0.68
2023-02-14T18:21:20.363Z,0.61
2023-02-14T18:23:47.293Z,0.50
2023-02-14T18:26:15.673Z,0.62
2023-02-14T18:28:42.427Z,0.55
2023-02-14T18:31:11.326Z,0.51
2023-02-14T18:33:38.364Z,0.65
2023-02-14T18:36:07.296Z,0.66
2023-02-14T18:38:34.926Z,0.45
2023-02-14T18:41:09.139Z,0.46
2023-02-14T18:43:36.587Z,0.34
2023-02-14T18:46:05.401Z,0.20
2023-02-14T18:48:32.565Z,0.28
2023-02-14T18:51:13.889Z,0.21
2023-02-14T18:53:41.423Z,0.26
2023-02-14T18:56:16.502Z,0.34
2023-02-14T18:58:47.252Z,0.24
2023-02-14T19:01:16.661Z,0.29
2023-02-14T19:03:43.568Z,0.17
2023-02-14T19:06:11.727Z,0.16
2023-02-14T19:08:39.842Z,0.14
2023-02-14T19:11:11.771Z,0.17
2023-02-14T19:13:38.545Z,0.07
2023-02-14T19:16:12.627Z,0.13
2023-02-14T19:18:39.899Z,-0.07
2023-02-14T19:21:18.399Z,-0.11
2023-02-14T19:23:45.141Z,-0.15
2023-02-14T19:26:17.463Z,-0.08
2023-02-14T19:28:44.996Z,-0.17
2023-02-14T19:31:12.096Z,-0.20
2023-02-14T19:33:48.086Z,-0.02
2023-02-14T19:36:18.480Z,-0.16
2023-02-14T19:38:49.156Z,-0.29
2023-02-14T19:41:25.088Z,-0.45
2023-02-14T19:43:52.665Z,-0.37
2023-02-14T19:46:20.361Z,-0.45
2023-02-14T19:48:47.776Z,-0.53
2023-02-14T19:51:29.484Z,-0.47
2023-02-14T19:53:57.430Z,-0.43
2023-02-14T19:56:26.549Z,-0.60
2023-02-14T19:58:53.577Z,-0.75
2023-02-14T20:01:29.570Z,-0.67
2023-02-14T20:03:56.445Z,-0.64
2023-02-14T20:06:24.554Z,-0.70
2023-02-14T20:08:51.703Z,-0.66
2023-02-14T20:11:40.537Z,-0.55
2023-02-14T20:14:08.450Z,-0.54
2023-02-14T20:16:36.766Z,-0.50
2023-02-14T20:19:06.440Z,-0.55
2023-02-14T20:21:33.907Z,-0.50
2023-02-14T20:24:02.576Z,-0.53
2023-02-14T20:26:30.670Z,-0.58
2023-02-14T20:29:03.898Z,-0.63
2023-02-14T20:31:32.853Z,-0.48
2023-02-14T20:33:59.851Z,-0.56
2023-02-14T20:36:28.224Z,-0.67
2023-02-14T20:39:00.537Z,-0.75
2023-02-14T20:41:27.983Z,-0.87
2023-02-14T20:43:55.557Z,-0.83
2023-02-14T20:46:22.937Z,-0.78
2023-02-14T20:48:51.069Z,-0.80
2023-02-14T20:51:19.550Z,-0.94
2023-02-14T20:53:46.422Z,-1.03
2023-02-14T20:56:13.933Z,-1.08
2023-02-14T20:58:41.030Z,-1.29
2023-02-14T21:01:15.975Z,-1.39
2023-02-14T21:03:46.673Z,-1.24
2023-02-14T21:06:14.972Z,-1.15
2023-02-14T21:08:42.757Z,-1.25
2023-02-14T21:11:11.625Z,-1.34
2023-02-14T21:13:38.812Z,-1.24
2023-02-14T21:16:08.025Z,-1.18
2023-02-14T21:18:37.697Z,-1.26
2023-02-14T21:21:11.587Z,-1.13
2023-02-14T21:23:38.234Z,-1.17
2023-02-14T21:26:06.096Z,-1.20
2023-02-14T21:28:32.954Z,-1.25
2023-02-14T21:31:08.671Z,-1.24
2023-02-14T21:33:36.148Z,-1.42
2023-02-14T21:36:05.748Z,-1.51
2023-02-14T21:38:32.408Z,-1.58
2023-02-14T21:41:10.472Z,-1.36
2023-02-14T21:43:39.346Z,-1.47
2023-02-14T21:46:07.819Z,-1.49
2023-02-14T21:48:53.163Z,-1.48
2023-02-14T21:51:21.343Z,-1.47
2023-02-14T21:53:48.503Z,-1.48
2023-02-14T21:56:19.649Z,-1.41
2023-02-14T21:58:51.819Z,-1.50
2023-02-14T22:01:24.352Z,-1.52
2023-02-14T22:03:53.493Z,-1.58
2023-02-14T22:06:20.253Z,-1.48
2023-02-14T22:08:47.076Z,-1.52
2023-02-14T22:11:15.419Z,-1.51
2023-02-14T22:13:42.644Z,-1.51
2023-02-14T22:16:14.658Z,-1.60
2023-02-14T22:18:41.813Z,-1.83
2023-02-14T22:21:10.962Z,-1.86
2023-02-14T22:23:38.256Z,-1.80
2023-02-14T22:26:25.759Z,-2.03
2023-02-14T22:28:55.911Z,-2.07
2023-02-14T22:31:23.260Z,-2.22
2023-02-14T22:33:50.278Z,-2.21
2023-02-14T22:36:16.906Z,-2.13
2023-02-14T22:38:43.918Z,-2.28
2023-02-14T22:41:13.088Z,-2.42
2023-02-14T22:43:40.520Z,-2.43
2023-02-14T22:46:13.434Z,-2.48
2023-02-14T22:48:40.724Z,-2.54
2023-02-14T22:51:23.694Z,-2.39
2023-02-14T22:53:51.974Z,-2.47
2023-02-14T22:56:20.709Z,-2.24
2023-02-14T22:58:47.611Z,-2.32
2023-02-14T23:01:19.370Z,-2.34
2023-02-14T23:03:48.122Z,-2.29
2023-02-14T23:06:15.703Z,-2.48
2023-02-14T23:08:43.878Z,-2.43
2023-02-14T23:11:15.169Z,-2.52
2023-02-14T23:14:02.093Z,-2.43
2023-02-14T23:16:47.921Z,-2.44
2023-02-14T23:19:35.539Z,-2.36
2023-02-14T23:22:23.523Z,-2.24
2023-02-14T23:24:51.736Z,-2.24
2023-02-14T23:27:20.677Z,-2.32
2023-02-14T23:29:47.283Z,-2.40
2023-02-14T23:32:14.169Z,-2.48
2023-02-14T23:34:41.806Z,-2.39
2023-02-14T23:37:09.246Z,-2.43
2023-02-14T23:39:36.857Z,-2.50
2023-02-14T23:42:12.200Z,-2.48
2023-02-14T23:44:38.790Z,-2.48
2023-02-14T23:47:08.096Z,-2.40
2023-02-14T23:49:36.436Z,-2.40
2023-02-14T23:52:04.088Z,-2.43
2023-02-14T23:54:30.692Z,-2.55
2023-02-14T23:56:59.892Z,-2.60
2023-02-14T23:59:26.584Z,-2.61
